createdAt,value
2017-04-18T00:09:46.000Z,65.6
2017-04-18T00:26:30.000Z,65.6
2017-04-18T00:43:15.000Z,65.2
2017-04-18T00:59:59.000Z,65.2
2017-04-18T01:16:43.000Z,65.2
2017-04-18T01:33:26.000Z,64.4
2017-04-18T01:50:10.000Z,64.4
2017-04-18T02:06:55.000Z,64.4
2017-04-18T02:23:38.000Z,64
2017-04-18T02:40:22.000Z,64
2017-04-18T02:57:05.000Z,64
2017-04-18T03:13:49.000Z,63.6
2017-04-18T03:30:34.000Z,63.6
2017-04-18T03:47:17.000Z,63.2
2017-04-18T04:04:01.000Z,62.8
2017-04-18T04:20:44.000Z,62.4
2017-04-18T04:37:28.000Z,62.4
2017-04-18T04:54:11.000Z,62.4
2017-04-18T05:10:55.000Z,62
2017-04-18T05:27:39.000Z,61.6
2017-04-18T05:44:22.000Z,61.6
2017-04-18T06:01:06.000Z,61.2
2017-04-18T06:17:50.000Z,60.8
2017-04-18T06:34:35.000Z,60.8
2017-04-18T06:51:19.000Z,60.4
2017-04-18T07:08:03.000Z,58.8
2017-04-18T07:24:48.000Z,58
2017-04-18T07:41:33.000Z,58
2017-04-18T07:58:18.000Z,58
2017-04-18T08:15:03.000Z,57.6
2017-04-18T08:31:49.000Z,57.6
2017-04-18T08:48:34.000Z,57.2
2017-04-18T09:05:19.000Z,57.2
2017-04-18T09:22:04.000Z,57.2
2017-04-18T09:38:49.000Z,56.4
2017-04-18T09:55:35.000Z,57.6
2017-04-18T10:12:20.000Z,58
2017-04-18T10:29:06.000Z,58
2017-04-18T10:45:52.000Z,57.6
2017-04-18T11:02:39.000Z,57.6
2017-04-18T11:19:25.000Z,57.6
2017-04-18T11:36:11.000Z,57.6
2017-04-18T11:52:57.000Z,57.6
2017-04-18T12:09:43.000Z,57.2
2017-04-18T12:26:29.000Z,57.2
2017-04-18T12:43:14.000Z,57.6
2017-04-18T13:00:00.000Z,57.6
2017-04-18T13:16:46.000Z,57.6
2017-04-18T13:33:32.000Z,56.8
2017-04-18T13:50:18.000Z,56.4
2017-04-18T14:07:05.000Z,56.4
2017-04-18T14:23:51.000Z,56
2017-04-18T14:40:38.000Z,56
2017-04-18T14:57:24.000Z,56
2017-04-18T15:14:11.000Z,56.4
2017-04-18T15:30:56.000Z,56.4
2017-04-18T15:47:43.000Z,56.8
2017-04-18T16:04:29.000Z,56.8
2017-04-18T16:21:16.000Z,56.8
2017-04-18T16:38:01.000Z,57.2
2017-04-18T17:11:34.000Z,57.2
2017-04-18T17:28:20.000Z,57.2
2017-04-18T17:45:06.000Z,57.6
2017-04-18T18:01:52.000Z,57.6
2017-04-18T18:18:38.000Z,57.6
2017-04-18T18:35:24.000Z,58
2017-04-18T18:52:10.000Z,58
2017-04-18T19:08:56.000Z,58.4
2017-04-18T19:25:42.000Z,58
2017-04-18T19:42:27.000Z,58.4
2017-04-18T19:59:13.000Z,58.4
2017-04-18T20:15:58.000Z,58.8
2017-04-18T20:32:44.000Z,58.8
2017-04-18T20:49:29.000Z,59.2
2017-04-18T21:06:13.000Z,59.2
2017-04-18T21:22:57.000Z,59.2
2017-04-18T21:39:43.000Z,59.2
2017-04-18T21:56:27.000Z,59.2
2017-04-18T22:13:11.000Z,58.4
2017-04-18T22:29:56.000Z,58.4
2017-04-18T22:46:40.000Z,58.4
2017-04-18T23:03:25.000Z,58.4
2017-04-18T23:20:09.000Z,58.4
2017-04-18T23:36:53.000Z,58
2017-04-18T23:53:37.000Z,58
